Time;durP1;ratioP1;P1;durP2;ratioP2;P2;SDS_P1;SDS_P2;PMS_P1;PMS_P2;Temp;Humidity;BMP_temperature;BMP_pressure;BME280_temperature;BME280_humidity;BME280_pressure;Samples;Min_cycle;Max_cycle;Signal;HPM_P1;HPM_P2
2023/10/25 00:03:16;;;;;;;;;;;;;;;;;;;;;
2023/10/25 00:10:27;;;;;;;1300.83;494.27;;;9.60;99.90;;;;;;4936019;29;20116;-85
2023/10/25 00:13:49;;;;;;;1301.50;494.40;;;9.60;99.90;;;;;;4902394;29;20052;-85
2023/10/25 00:16:28;;;;;;;1295.50;483.33;;;9.60;99.90;;;;;;4914478;29;20094;-84
2023/10/25 00:19:52;;;;;;;1354.97;521.97;;;9.60;99.90;;;;;;4931547;29;20047;-85
2023/10/25 00:23:20;;;;;;;1303.33;489.50;;;9.60;99.90;;;;;;4866563;29;20064;-87
2023/10/25 00:26:46;;;;;;;;;;;;;;;;;;;;;
2023/10/25 00:37:10;;;;;;;1299.30;485.27;;;9.60;99.90;;;;;;4838528;29;20111;-86
2023/10/25 00:39:47;;;;;;;1349.90;521.70;;;9.60;99.90;;;;;;4865039;29;20053;-85
2023/10/25 00:42:23;;;;;;;1350.40;524.73;;;9.50;99.90;;;;;;4862580;29;20059;-86
2023/10/25 00:45:34;;;;;;;;;;;;;;;;;;;;;
2023/10/25 00:48:41;;;;;;;1294.83;481.50;;;9.50;99.90;;;;;;4915591;29;20056;-85
2023/10/25 00:52:00;;;;;;;1296.70;491.20;;;9.50;99.90;;;;;;4909621;29;20048;-86
2023/10/25 00:55:37;;;;;;;;;;;;;;;;;;;;;
2023/10/25 01:17:18;;;;;;;1290.67;483.00;;;9.30;99.90;;;;;;5012366;28;20045;-85
2023/10/25 01:20:56;;;;;;;1340.43;524.97;;;9.30;99.90;;;;;;5072380;28;20071;-85
2023/10/25 01:24:15;;;;;;;1331.17;523.43;;;9.20;99.90;;;;;;5094140;28;20082;-85
2023/10/25 01:27:29;;;;;;;1290.80;488.70;;;9.40;99.90;;;;;;5051721;28;20059;-85
2023/10/25 01:30:33;;;;;;;1345.77;522.57;;;9.20;99.90;;;;;;5028552;28;20046;-85
2023/10/25 01:34:02;;;;;;;;;;;;;;;;;;;;;
2023/10/25 02:02:07;;;;;;;1330.13;520.30;;;8.90;99.90;;;;;;5072949;28;20039;-86
2023/10/25 02:04:35;;;;;;;1284.23;476.50;;;8.90;99.90;;;;;;5056601;28;20036;-85
2023/10/25 02:07:04;;;;;;;1282.30;475.07;;;8.80;99.90;;;;;;5059314;28;20110;-86
2023/10/25 02:09:31;;;;;;;1285.33;479.73;;;8.80;99.90;;;;;;5062306;28;20090;-86
2023/10/25 02:12:55;;;;;;;;;;;;;;;;;;;;;
2023/10/25 02:16:44;;;;;;;1331.27;518.60;;;9.10;99.90;;;;;;5072787;28;20392;-87
2023/10/25 02:20:03;;;;;;;1274.07;476.57;;;8.80;99.90;;;;;;5030461;28;20153;-88
2023/10/25 02:40:21;;;;;;;1316.87;518.37;;;8.80;99.90;;;;;;5031443;28;20045;-89
2023/10/25 02:43:35;;;;;;;1272.47;466.67;;;8.70;99.90;;;;;;5014371;28;20064;-89
2023/10/25 02:46:43;;;;;;;1274.87;470.73;;;8.70;99.90;;;;;;4995036;28;20557;-88
2023/10/25 02:50:06;;;;;;;;;;;;;;;;;;;;;
2023/10/25 02:53:56;;;;;;;;;;;;;;;;;;;;;
2023/10/25 02:57:11;;;;;;;1319.87;523.43;;;8.70;99.90;;;;;;5027816;28;20045;-88
2023/10/25 03:04:20;;;;;;;1269.23;473.00;;;8.60;99.90;;;;;;5050814;28;20060;-88
2023/10/25 03:07:40;;;;;;;1317.57;521.63;;;8.60;99.90;;;;;;5046928;28;20146;-90
2023/10/25 03:11:15;;;;;;;1318.97;520.27;;;8.90;99.90;;;;;;4972177;28;20054;-88
2023/10/25 03:13:58;;;;;;;1272.37;474.67;;;8.50;99.90;;;;;;4969415;28;20115;-87
2023/10/25 03:18:00;;;;;;;;;;;;;;;;;;;;;
2023/10/25 03:25:42;;;;;;;;;;;;;;;;;;;;;
2023/10/25 03:29:12;;;;;;;1315.70;520.90;;;8.40;99.90;;;;;;4972019;28;20066;-89
2023/10/25 03:32:37;;;;;;;1266.53;473.47;;;8.30;99.90;;;;;;4971035;28;20051;-88
2023/10/25 03:36:10;;;;;;;1262.00;476.23;;;8.30;99.90;;;;;;4956311;28;20054;-88
2023/10/25 03:39:35;;;;;;;1301.60;516.73;;;8.20;99.90;;;;;;4974347;28;20097;-90
2023/10/25 03:46:33;;;;;;;1272.20;467.10;;;8.20;99.90;;;;;;4974922;28;20158;-89
2023/10/25 03:50:05;;;;;;;1267.40;475.87;;;8.20;99.90;;;;;;5013937;28;20057;-88
2023/10/25 03:53:31;;;;;;;1273.80;470.73;;;8.30;99.90;;;;;;4996762;28;20084;-88
2023/10/25 03:56:41;;;;;;;1313.40;521.37;;;8.10;99.90;;;;;;4997349;28;20529;-88
2023/10/25 04:00:03;;;;;;;1309.23;521.20;;;8.10;99.90;;;;;;5012371;28;20054;-90
2023/10/25 04:03:24;;;;;;;1265.13;471.53;;;8.10;99.90;;;;;;5013834;28;20057;-90
2023/10/25 04:14:17;;;;;;;1315.63;518.57;;;8.00;99.90;;;;;;4974420;28;20078;-90
2023/10/25 04:17:36;;;;;;;1267.97;469.53;;;8.00;99.90;;;;;;4988934;28;20055;-88
2023/10/25 04:20:57;;;;;;;;;;;;;;;;;;;;;
2023/10/25 04:24:28;;;;;;;1313.07;512.70;;;8.00;99.90;;;;;;4974436;28;20047;-89
2023/10/25 04:27:42;;;;;;;;;;;;;;;;;;;;;
2023/10/25 04:31:07;;;;;;;1315.70;519.20;;;7.90;99.90;;;;;;4971911;28;20102;-89
2023/10/25 04:49:13;;;;;;;1307.37;512.80;;;7.80;99.90;;;;;;5013062;28;20060;-86
2023/10/25 04:52:26;;;;;;;1319.67;515.10;;;7.80;99.90;;;;;;4996582;28;20526;-88
2023/10/25 04:55:11;;;;;;;1267.90;467.43;;;7.70;99.90;;;;;;5042718;28;20512;-88
2023/10/25 04:58:31;;;;;;;;;;;;;;;;;;;;;
2023/10/25 05:02:09;;;;;;;1272.17;471.70;;;7.70;99.90;;;;;;5032248;28;20319;-86
2023/10/25 05:05:21;;;;;;;1270.00;469.40;;;7.70;99.90;;;;;;4977651;28;20046;-85
2023/10/25 05:12:33;;;;;;;;;;;;;;;;;;;;;
2023/10/25 05:15:55;;;;;;;1261.87;464.73;;;7.50;99.90;;;;;;4981611;28;20113;-86
2023/10/25 05:18:33;;;;;;;1264.60;476.23;;;7.50;99.90;;;;;;4960245;28;20060;-85
2023/10/25 05:21:51;;;;;;;;;;;;;;;;;;;;;
2023/10/25 05:25:36;;;;;;;;;;;;;;;;;;;;;
2023/10/25 05:28:57;;;;;;;1296.82;510.15;;;7.50;99.90;;;;;;5013102;28;20058;-89
2023/10/25 05:32:27;;;;;;;1301.77;508.77;;;7.50;99.90;;;;;;4999948;28;20149;-87
2023/10/25 05:35:42;;;;;;;1277.73;464.50;;;7.50;99.90;;;;;;4981972;28;20061;-89
2023/10/25 05:39:00;;;;;;;1307.27;509.33;;;7.50;99.90;;;;;;5015382;28;20060;-89
2023/10/25 05:42:27;;;;;;;1273.67;468.73;;;7.40;99.90;;;;;;5010566;28;20105;-85
2023/10/25 05:45:42;;;;;;;1335.77;512.97;;;7.40;99.90;;;;;;4994404;28;20072;-86
2023/10/25 05:49:16;;;;;;;1278.70;463.37;;;7.40;99.90;;;;;;4972614;28;20063;-86
2023/10/25 05:56:31;;;;;;;;;;;;;;;;;;;;;
2023/10/25 05:59:11;;;;;;;1289.47;506.30;;;7.30;99.90;;;;;;4953501;28;20058;-85
2023/10/25 06:02:06;;;;;;;1261.13;459.13;;;7.30;99.90;;;;;;4971943;28;20630;-85
2023/10/25 06:04:37;;;;;;;1251.17;467.07;;;7.20;99.90;;;;;;4952512;28;20047;-85
2023/10/25 06:07:21;;;;;;;1260.80;464.73;;;7.20;99.90;;;;;;4939673;28;20055;-84
2023/10/25 06:10:50;;;;;;;1299.63;516.43;;;7.10;99.90;;;;;;4955148;28;20512;-83
2023/10/25 06:14:16;;;;;;;1299.20;509.80;;;7.20;99.90;;;;;;4952320;28;20086;-83
2023/10/25 06:52:27;;;;;;;1280.60;500.63;;;6.80;99.90;;;;;;5093491;28;20109;-83
2023/10/25 06:55:17;;;;;;;1248.93;452.90;;;6.60;99.90;;;;;;5074282;28;20040;-83
2023/10/25 06:58:19;;;;;;;1288.97;505.40;;;6.60;99.90;;;;;;5077144;28;20127;-84
2023/10/25 07:01:25;;;;;;;1250.03;451.97;;;6.60;99.90;;;;;;4998346;28;20046;-82
2023/10/25 07:04:34;;;;;;;1286.53;499.40;;;6.60;99.90;;;;;;4984349;28;20089;-83
2023/10/25 07:07:26;;;;;;;1295.47;508.90;;;6.60;99.90;;;;;;4996840;28;20057;-83
2023/10/25 07:36:07;;;;;;;1299.03;505.40;;;7.10;99.90;;;;;;5014193;28;20527;-88
2023/10/25 07:39:15;;;;;;;1297.60;502.77;;;7.10;99.90;;;;;;5077014;28;20385;-91
2023/10/25 07:42:07;;;;;;;;;;;;;;;;;;;;;
2023/10/25 07:45:08;;;;;;;1285.83;507.93;;;7.30;99.90;;;;;;5078036;28;19920;-88
2023/10/25 07:48:28;;;;;;;;;;;;;;;;;;;;;
2023/10/25 07:51:44;;;;;;;;;;;;;;;;;;;;;
2023/10/25 08:02:17;;;;;;;1266.03;463.60;;;7.60;99.90;;;;;;5033289;28;20052;-85
2023/10/25 08:05:32;;;;;;;;;;;;;;;;;;;;;
2023/10/25 08:08:50;;;;;;;1259.40;463.07;;;7.70;99.90;;;;;;5015983;28;20423;-85
2023/10/25 08:11:52;;;;;;;1296.73;510.50;;;7.70;99.90;;;;;;5016234;28;20056;-84
2023/10/25 08:14:52;;;;;;;1253.27;469.77;;;7.70;99.90;;;;;;5015696;28;20061;-84
2023/10/25 08:17:56;;;;;;;1298.73;513.00;;;7.80;99.90;;;;;;5029553;28;20636;-84
2023/10/25 08:21:27;;;;;;;;;;;;;;;;;;;;;
2023/10/25 08:50:44;;;;;;;1294.53;480.17;;;8.60;99.90;;;;;;5094384;28;20058;-84
2023/10/25 08:54:24;;;;;;;;;;;;;;;;;;;;;
2023/10/25 08:57:37;;;;;;;1348.20;522.93;;;8.80;99.90;;;;;;5070304;28;20071;-86
2023/10/25 09:00:37;;;;;;;;;;;8.90;99.90;;;;;;5074898;28;20052;-85
2023/10/25 09:03:59;;;;;;;1284.47;480.73;;;9.00;99.90;;;;;;5073161;28;19966;-86
2023/10/25 09:07:01;;;;;;;1291.57;486.10;;;9.00;99.90;;;;;;5040154;28;20088;-85
2023/10/25 09:10:09;;;;;;;;;;;9.10;99.90;;;;;;5040461;28;20044;-89
2023/10/25 09:12:54;;;;;;;1338.47;529.83;;;9.20;99.90;;;;;;5069400;28;19926;-87
2023/10/25 09:16:17;;;;;;;1285.90;488.93;;;9.30;99.90;;;;;;5052044;28;20049;-87
2023/10/25 09:19:18;;;;;;;1366.00;526.03;;;9.30;99.90;;;;;;5051648;28;20493;-85
2023/10/25 09:22:59;;;;;;;;;;;;;;;;;;;;;
2023/10/25 09:25:40;;;;;;;1415.83;525.57;;;9.50;99.90;;;;;;5069507;28;20056;-86
2023/10/25 09:28:16;;;;;;;1359.40;510.63;;;9.70;99.90;;;;;;5052758;28;20118;-90
2023/10/25 09:30:44;;;;;;;1418.33;529.90;;;9.70;99.90;;;;;;5067995;28;20048;-86
2023/10/25 09:33:13;;;;;;;1409.83;528.00;;;9.80;99.90;;;;;;5048730;28;20416;-84
2023/10/25 09:35:42;;;;;;;1399.73;528.63;;;9.90;99.90;;;;;;5073458;28;20401;-84
2023/10/25 09:38:12;;;;;;;1397.53;529.13;;;9.90;99.90;;;;;;5073756;28;20413;-89
2023/10/25 09:40:42;;;;;;;1396.70;531.77;;;10.00;99.90;;;;;;5055650;28;20033;-86
2023/10/25 09:43:24;;;;;;;1393.03;532.23;;;10.00;99.90;;;;;;5073758;28;20083;-86
2023/10/25 09:45:56;;;;;;;1383.63;532.80;;;10.10;99.90;;;;;;5068615;28;20047;-88
2023/10/25 09:48:35;;;;;;;1321.10;514.00;;;10.10;99.90;;;;;;5052332;28;20472;-88
2023/10/25 09:51:37;;;;;;;1369.73;534.50;;;10.20;99.90;;;;;;5054881;28;20079;-87
2023/10/25 09:54:12;;;;;;;1354.70;537.43;;;10.20;99.90;;;;;;5073008;28;20446;-86
2023/10/25 09:56:42;;;;;;;1353.90;533.90;;;10.30;99.90;;;;;;5073810;28;20049;-89
2023/10/25 09:59:15;;;;;;;1357.47;533.53;;;10.30;99.90;;;;;;5055843;28;20091;-87
2023/10/25 10:01:49;;;;;;;1295.87;505.00;;;10.40;99.90;;;;;;5039202;28;20040;-87
2023/10/25 10:04:54;;;;;;;1349.50;536.55;;;10.40;99.90;;;;;;5055795;28;20036;-87
2023/10/25 10:08:00;;;;;;;1342.87;532.97;;;10.40;99.90;;;;;;5073342;28;20040;-89
2023/10/25 10:11:22;;;;;;;1287.90;509.98;;;10.40;99.90;;;;;;5073774;28;20077;-86
2023/10/25 10:14:28;;;;;;;1336.20;532.43;;;10.50;99.90;;;;;;4991624;28;20058;-88
2023/10/25 10:17:10;;;;;;;1345.32;537.67;;;10.60;99.90;;;;;;5019397;28;20077;-86
2023/10/25 10:19:58;;;;;;;1300.77;512.27;;;10.60;99.90;;;;;;5010320;28;20048;-86
2023/10/25 10:22:56;;;;;;;1329.57;532.97;;;10.50;99.90;;;;;;4959705;28;20127;-90
2023/10/25 10:25:50;;;;;;;1281.73;506.10;;;10.70;99.90;;;;;;5007316;28;20050;-88
2023/10/25 10:29:03;;;;;;;1288.80;510.33;;;10.80;99.90;;;;;;4978956;28;20137;-87
2023/10/25 10:39:32;;;;;;;1340.40;530.70;;;11.10;99.90;;;;;;4934242;29;20099;-87
2023/10/25 10:42:43;;;;;;;;;;;;;;;;;;;;;
2023/10/25 10:45:50;;;;;;;1384.73;530.97;;;11.20;99.90;;;;;;4893006;29;20059;-89
2023/10/25 10:48:56;;;;;;;1327.97;513.83;;;11.40;99.90;;;;;;4954618;28;20156;-89
2023/10/25 10:52:15;;;;;;;1322.80;506.73;;;11.40;99.90;;;;;;4997958;28;20542;-87
2023/10/25 10:55:10;;;;;;;1310.37;496.30;;;11.50;99.90;;;;;;4975753;28;20570;-89
2023/10/25 10:58:04;;;;;;;1379.33;534.80;;;11.60;99.90;;;;;;5000721;28;20061;-88
2023/10/25 11:01:03;;;;;;;1316.27;498.40;;;11.70;99.90;;;;;;4978376;28;20043;-91
2023/10/25 11:04:39;;;;;;;1375.47;538.33;;;11.70;99.90;;;;;;4981108;28;20039;-89
2023/10/25 11:08:01;;;;;;;1371.77;535.07;;;11.80;99.90;;;;;;4994404;28;20499;-86
2023/10/25 11:11:18;;;;;;;1370.33;540.57;;;12.00;99.90;;;;;;5076910;28;20063;-91
2023/10/25 11:14:12;;;;;;;1350.30;524.63;;;12.00;99.90;;;;;;5057016;28;20055;-90
2023/10/25 11:17:33;;;;;;;1266.68;465.38;;;12.10;99.90;;;;;;5055668;28;20771;-87
2023/10/25 11:32:01;;;;;;;;;;;;;;;;;;;;;
2023/10/25 11:35:37;;;;;;;;;;;;;;;;;;;;;
2023/10/25 11:39:27;;;;;;;1407.23;556.30;;;12.70;99.90;;;;;;5034126;28;20045;-90
2023/10/25 11:42:59;;;;;;;;;;;;;;;;;;;;;
2023/10/25 11:46:17;;;;;;;1322.57;548.27;;;13.00;99.90;;;;;;4994195;28;20053;-86
2023/10/25 11:49:25;;;;;;;1327.43;531.50;;;12.90;99.90;;;;;;4977262;28;20080;-86
2023/10/25 11:52:33;;;;;;;1390.10;557.30;;;13.00;99.90;;;;;;4977627;28;20054;-88
2023/10/25 11:55:32;;;;;;;1420.13;549.53;;;13.40;99.90;;;;;;4974914;28;20050;-87
2023/10/25 11:58:44;;;;;;;;;;;;;;;;;;;;;
2023/10/25 12:01:46;;;;;;;;;;;;;;;;;;;;;
2023/10/25 12:04:45;;;;;;;;;;;;;;;;;;;;;
2023/10/25 12:07:40;;;;;;;1339.63;563.17;;;13.00;99.90;;;;;;4994314;28;20042;-86
2023/10/25 13:13:57;;;;;;;1458.13;550.87;;;12.80;99.90;;;;;;5074918;28;20111;-91
2023/10/25 13:16:39;;;;;;;1380.83;578.33;;;12.80;99.90;;;;;;5074295;28;20045;-91
2023/10/25 13:19:48;;;;;;;;;;;;;;;;;;;;;
2023/10/25 13:23:01;;;;;;;1448.90;551.27;;;12.70;99.90;;;;;;5056858;28;20049;-91
2023/10/25 13:26:06;;;;;;;1448.57;552.57;;;12.70;99.90;;;;;;5074349;28;20051;-90
2023/10/25 13:29:13;;;;;;;1448.77;556.30;;;12.70;99.90;;;;;;5073263;28;20059;-89
2023/10/25 13:39:53;;;;;;;;;;;;;;;;;;;;;
2023/10/25 13:43:15;;;;;;;1447.33;556.20;;;12.60;99.90;;;;;;5071601;28;20135;-85
2023/10/25 13:46:15;;;;;;;1438.60;555.87;;;12.50;99.90;;;;;;5054971;28;20044;-85
2023/10/25 13:49:24;;;;;;;1369.43;573.73;;;12.50;99.90;;;;;;5073267;28;20052;-86
2023/10/25 13:52:21;;;;;;;1379.93;575.03;;;12.50;99.90;;;;;;5011739;28;20093;-85
2023/10/25 13:55:20;;;;;;;1442.00;559.20;;;12.50;99.90;;;;;;4992662;28;20058;-85
2023/10/25 14:01:51;;;;;;;1375.90;572.63;;;12.50;99.90;;;;;;5002135;28;20068;-90
2023/10/25 14:04:53;;;;;;;1368.50;571.93;;;12.50;99.90;;;;;;5011889;28;20049;-87
2023/10/25 14:08:20;;;;;;;1371.83;580.63;;;12.40;99.90;;;;;;5008123;28;20130;-89
2023/10/25 14:11:31;;;;;;;1370.33;578.53;;;12.40;99.90;;;;;;5010768;28;20096;-89
2023/10/25 14:14:41;;;;;;;1373.57;569.03;;;12.40;99.90;;;;;;5012403;28;20460;-89
2023/10/25 14:17:17;;;;;;;1439.97;559.03;;;12.40;99.90;;;;;;4992809;28;20518;-89
2023/10/25 14:23:16;;;;;;;1439.17;560.53;;;12.40;99.90;;;;;;5045358;28;20516;-90
2023/10/25 14:25:48;;;;;;;1439.37;559.37;;;12.40;99.90;;;;;;5035643;28;20493;-91
2023/10/25 14:28:29;;;;;;;1441.13;558.07;;;12.40;99.90;;;;;;5038292;28;20044;-90
2023/10/25 14:31:02;;;;;;;;;;;12.30;99.90;;;;;;5073422;28;20049;-90
2023/10/25 14:33:29;;;;;;;1370.60;570.33;;;12.40;99.90;;;;;;5073586;28;20301;-92
2023/10/25 14:36:10;;;;;;;1376.53;580.37;;;12.30;99.90;;;;;;5055635;28;20052;-91
2023/10/25 14:38:37;;;;;;;1369.77;570.27;;;12.20;99.90;;;;;;5055537;28;20040;-90
2023/10/25 14:44:45;;;;;;;1435.80;556.60;;;12.20;99.90;;;;;;5077809;28;20066;-90
2023/10/25 14:47:26;;;;;;;1364.83;567.37;;;12.10;99.90;;;;;;5072970;28;20051;-89
2023/10/25 14:50:07;;;;;;;1436.50;553.73;;;12.20;99.90;;;;;;5055671;28;20431;-91
2023/10/25 14:52:52;;;;;;;1434.23;552.90;;;12.10;99.90;;;;;;5058164;28;20397;-90
2023/10/25 14:55:23;;;;;;;1430.23;551.97;;;12.10;99.90;;;;;;5073163;28;20098;-86
2023/10/25 14:57:54;;;;;;;1433.17;558.37;;;12.00;99.90;;;;;;5073594;28;20040;-86
2023/10/25 15:00:25;;;;;;;1438.40;564.30;;;12.00;99.90;;;;;;5074762;28;20044;-84
2023/10/25 15:02:54;;;;;;;1437.67;557.87;;;11.90;99.90;;;;;;5074904;28;20048;-89
2023/10/25 15:05:23;;;;;;;1363.73;569.57;;;11.90;99.90;;;;;;5092817;28;20055;-88
2023/10/25 15:07:50;;;;;;;1432.20;555.13;;;11.90;99.90;;;;;;5045399;28;20136;-85
2023/10/25 15:10:19;;;;;;;1427.70;553.90;;;11.90;99.90;;;;;;5057631;28;20039;-84
2023/10/25 15:12:45;;;;;;;1359.47;560.13;;;11.80;99.90;;;;;;5092192;28;20101;-84
2023/10/25 15:15:17;;;;;;;1359.40;563.27;;;11.80;99.90;;;;;;5076903;28;20036;-84
2023/10/25 15:17:49;;;;;;;1432.70;558.80;;;11.70;99.90;;;;;;5073066;28;20032;-89
2023/10/25 15:20:18;;;;;;;1429.93;550.47;;;11.70;99.90;;;;;;5054861;28;20427;-90
2023/10/25 15:22:45;;;;;;;1430.30;555.83;;;11.70;99.90;;;;;;5060539;28;20508;-90
2023/10/25 15:25:17;;;;;;;1430.33;549.07;;;11.60;99.90;;;;;;5054296;28;20044;-88
2023/10/25 15:27:46;;;;;;;1430.97;560.60;;;11.60;99.90;;;;;;5086735;28;20032;-87
2023/10/25 15:30:17;;;;;;;1366.47;549.70;;;11.60;99.90;;;;;;5044554;28;20040;-89
2023/10/25 15:32:45;;;;;;;1371.67;560.93;;;11.50;99.90;;;;;;5078408;28;20071;-85
2023/10/25 15:35:12;;;;;;;1363.70;556.33;;;11.50;99.90;;;;;;5076118;28;20041;-81
2023/10/25 15:37:53;;;;;;;1430.47;548.83;;;11.50;99.90;;;;;;5058346;28;20507;-83
2023/10/25 15:40:20;;;;;;;1434.20;550.53;;;11.50;99.90;;;;;;5058415;28;20401;-81
2023/10/25 15:42:52;;;;;;;1365.47;545.50;;;11.40;99.90;;;;;;5075535;28;20040;-88
2023/10/25 15:45:28;;;;;;;1434.83;552.03;;;11.40;99.90;;;;;;5074865;28;20041;-87
2023/10/25 15:48:13;;;;;;;1364.37;556.20;;;11.40;99.90;;;;;;5060889;28;20460;-93
2023/10/25 15:51:13;;;;;;;;;;;;;;;;;;;;;
2023/10/25 15:53:55;;;;;;;1432.10;546.50;;;11.40;99.90;;;;;;5059830;28;20048;-86
2023/10/25 15:56:24;;;;;;;1431.80;548.80;;;11.30;99.90;;;;;;5057964;28;20048;-83
2023/10/25 15:59:06;;;;;;;1431.97;545.70;;;11.10;99.90;;;;;;5089201;28;20496;-90
2023/10/25 16:01:38;;;;;;;1362.17;546.03;;;11.30;99.90;;;;;;5079002;28;20506;-86
2023/10/25 16:04:13;;;;;;;1429.50;543.37;;;11.30;99.90;;;;;;5096356;28;20050;-87
2023/10/25 16:10:56;;;;;;;1358.13;542.50;;;11.30;99.90;;;;;;5079088;28;20064;-91
2023/10/25 16:14:09;;;;;;;;;;;;;;;;;;;;;
2023/10/25 16:17:29;;;;;;;1415.30;546.97;;;11.30;99.90;;;;;;5078316;28;20076;-84
2023/10/25 16:20:42;;;;;;;;;;;;;;;;;;;;;
2023/10/25 16:23:47;;;;;;;1410.23;544.43;;;11.20;99.90;;;;;;5075487;28;20111;-85
2023/10/25 16:26:30;;;;;;;1409.60;547.73;;;11.20;99.90;;;;;;5073668;28;20119;-89
2023/10/25 16:29:35;;;;;;;;;;;;;;;;;;;;;
2023/10/25 16:32:43;;;;;;;;;;;;;;;;;;;;;
2023/10/25 16:36:06;;;;;;;1408.87;542.03;;;11.30;99.90;;;;;;5056334;28;20452;-84
2023/10/25 16:39:24;;;;;;;1414.87;541.13;;;11.10;99.90;;;;;;5029734;28;20180;-87
2023/10/25 16:43:03;;;;;;;;;;;;;;;;;;;;;
2023/10/25 16:50:17;;;;;;;1354.57;533.83;;;11.00;99.90;;;;;;5032346;28;20097;-84
2023/10/25 16:53:37;;;;;;;1356.50;534.97;;;11.00;99.90;;;;;;5028683;28;20049;-86
2023/10/25 16:57:00;;;;;;;1412.37;540.37;;;10.90;99.90;;;;;;4976993;28;20159;-84
2023/10/25 17:00:13;;;;;;;1415.13;541.63;;;10.90;99.90;;;;;;4998351;28;20121;-84
2023/10/25 17:03:40;;;;;;;1416.50;543.93;;;10.90;99.90;;;;;;5007093;28;20537;-86
2023/10/25 17:06:29;;;;;;;1348.97;526.87;;;10.80;99.90;;;;;;4975359;28;20442;-84
2023/10/25 17:17:29;;;;;;;1411.47;540.83;;;10.80;99.90;;;;;;5009157;28;20116;-87
2023/10/25 17:20:55;;;;;;;;;;;;;;;;;;;;;
2023/10/25 17:24:09;;;;;;;1411.40;538.93;;;10.80;99.90;;;;;;5012752;28;20041;-84
2023/10/25 17:27:26;;;;;;;;;;;;;;;;;;;;;
2023/10/25 17:30:51;;;;;;;1353.17;528.20;;;10.90;99.90;;;;;;5093917;28;20047;-85
2023/10/25 17:34:20;;;;;;;1410.43;536.27;;;10.70;99.90;;;;;;5094094;28;20108;-85
2023/10/25 17:45:00;;;;;;;1407.83;538.43;;;10.70;99.90;;;;;;5090409;28;20046;-85
2023/10/25 17:48:28;;;;;;;1354.07;535.00;;;10.60;99.90;;;;;;5090764;28;20118;-84
2023/10/25 17:51:59;;;;;;;1407.57;535.03;;;10.70;99.90;;;;;;5091230;28;20377;-85
2023/10/25 17:55:03;;;;;;;;;;;10.60;99.90;;;;;;5090488;28;20550;-85
2023/10/25 17:58:44;;;;;;;1403.67;532.53;;;10.60;99.90;;;;;;5082470;28;19920;-85
2023/10/25 18:02:13;;;;;;;;;;;;;;;;;;;;;
2023/10/25 18:13:05;;;;;;;1346.73;515.53;;;10.60;99.90;;;;;;5050353;28;20036;-86
2023/10/25 18:16:25;;;;;;;;;;;;;;;;;;;;;
2023/10/25 18:19:51;;;;;;;1407.20;534.87;;;10.60;99.90;;;;;;5051078;28;20048;-84
2023/10/25 18:23:24;;;;;;;1405.70;535.23;;;10.50;99.90;;;;;;4991540;28;20046;-85
2023/10/25 18:26:40;;;;;;;1342.37;520.50;;;10.90;99.90;;;;;;4971941;28;20526;-85
2023/10/25 18:29:59;;;;;;;1350.50;529.07;;;10.50;99.90;;;;;;4914547;29;20059;-86
2023/10/25 18:40:39;;;;;;;1341.00;514.20;;;10.50;99.90;;;;;;4914144;29;20478;-85
2023/10/25 18:44:08;;;;;;;;;;;;;;;;;;;;;
2023/10/25 18:47:39;;;;;;;1401.63;533.40;;;10.50;99.90;;;;;;4875728;29;20093;-85
2023/10/25 18:51:01;;;;;;;1341.88;514.08;;;10.50;99.90;;;;;;4876218;29;20399;-85
2023/10/25 18:54:18;;;;;;;1397.75;528.42;;;10.50;99.90;;;;;;4904061;29;20144;-85
2023/10/25 18:57:56;;;;;;;1397.78;533.75;;;10.40;99.90;;;;;;4941212;29;20078;-85
2023/10/25 19:12:19;;;;;;;1396.23;534.50;;;10.40;99.90;;;;;;5014668;28;20052;-84
2023/10/25 19:14:47;;;;;;;1335.17;512.27;;;10.40;99.90;;;;;;5024340;28;20079;-84
2023/10/25 19:17:21;;;;;;;1398.97;534.13;;;10.40;99.90;;;;;;5036688;28;20135;-85
2023/10/25 19:19:48;;;;;;;1399.70;536.10;;;10.40;99.90;;;;;;5053029;28;20056;-84
2023/10/25 19:22:17;;;;;;;1339.37;519.27;;;10.40;99.90;;;;;;5061063;28;20049;-83
2023/10/25 19:24:48;;;;;;;1337.00;515.53;;;10.40;99.90;;;;;;5052749;28;20387;-86
2023/10/25 19:27:17;;;;;;;1395.60;536.83;;;10.40;99.90;;;;;;5062666;28;20086;-82
2023/10/25 19:29:47;;;;;;;1397.83;545.90;;;10.40;99.90;;;;;;5077995;28;20424;-84
2023/10/25 19:32:16;;;;;;;1391.60;532.37;;;10.40;99.90;;;;;;5072849;28;20036;-85
2023/10/25 19:34:46;;;;;;;1331.87;515.13;;;10.40;99.90;;;;;;5057968;28;20053;-86
2023/10/25 19:37:12;;;;;;;1394.93;538.40;;;10.40;99.90;;;;;;5057033;28;20080;-84
2023/10/25 19:39:46;;;;;;;1339.13;517.73;;;10.40;99.90;;;;;;5057877;28;20396;-83
2023/10/25 19:42:35;;;;;;;1332.63;518.85;;;10.30;99.90;;;;;;5046753;28;20040;-84
2023/10/25 19:45:55;;;;;;;1392.80;534.33;;;10.30;99.90;;;;;;5077842;28;20048;-87
2023/10/25 19:49:25;;;;;;;1337.07;513.77;;;10.30;99.90;;;;;;5090889;28;20093;-84
2023/10/25 19:56:02;;;;;;;1379.77;532.73;;;10.30;99.90;;;;;;4994224;28;20136;-84
2023/10/25 19:59:43;;;;;;;1325.17;506.33;;;10.30;99.90;;;;;;4917459;29;20605;-83
2023/10/25 20:02:55;;;;;;;1320.67;507.97;;;10.30;99.90;;;;;;4879873;29;20083;-85
2023/10/25 20:06:18;;;;;;;1376.03;531.70;;;10.20;99.90;;;;;;4896877;29;20057;-84
2023/10/25 20:09:41;;;;;;;1321.47;507.13;;;10.20;99.90;;;;;;4898160;29;20429;-84
2023/10/25 20:13:08;;;;;;;;;;;;;;;;;;;;;
2023/10/25 20:24:33;;;;;;;;;;;10.20;99.90;;;;;;4914080;29;20552;-83
2023/10/25 20:27:26;;;;;;;1316.67;497.53;;;10.20;99.90;;;;;;4937994;28;20008;-85
2023/10/25 20:30:42;;;;;;;1320.60;507.15;;;10.20;99.90;;;;;;4973154;28;20058;-84
2023/10/25 20:33:50;;;;;;;1378.93;531.70;;;10.20;99.90;;;;;;4954727;29;20055;-84
2023/10/25 20:36:19;;;;;;;1375.53;528.77;;;10.20;99.90;;;;;;4967327;28;20089;-84
2023/10/25 20:38:54;;;;;;;1324.23;506.80;;;10.20;99.90;;;;;;4938552;29;20448;-84
2023/10/25 20:41:43;;;;;;;1381.27;538.13;;;10.20;99.90;;;;;;4972995;28;20142;-83
2023/10/25 20:44:14;;;;;;;1380.00;533.87;;;10.20;99.90;;;;;;4987014;28;20050;-86
2023/10/25 20:46:45;;;;;;;1371.53;530.72;;;10.20;99.90;;;;;;4993000;28;20136;-86
2023/10/25 20:49:23;;;;;;;1377.57;534.17;;;10.20;99.90;;;;;;4992642;28;20116;-84
2023/10/25 20:51:57;;;;;;;1377.23;530.87;;;10.20;99.90;;;;;;4992645;28;20126;-83
2023/10/25 20:54:32;;;;;;;1320.77;509.57;;;10.20;99.90;;;;;;4977041;28;20051;-84
2023/10/25 20:57:03;;;;;;;1320.77;510.47;;;10.10;99.90;;;;;;4992215;28;20051;-85
2023/10/25 20:59:39;;;;;;;1319.70;514.40;;;10.20;99.90;;;;;;4976442;28;20058;-83
2023/10/25 21:02:12;;;;;;;1374.93;537.07;;;10.20;99.90;;;;;;4995766;28;20515;-86
2023/10/25 21:05:04;;;;;;;1372.40;533.03;;;10.10;99.90;;;;;;5035989;28;20389;-84
2023/10/25 21:07:36;;;;;;;1313.83;507.33;;;10.20;99.90;;;;;;5059326;28;20109;-85
2023/10/25 21:10:03;;;;;;;1315.30;505.87;;;10.20;99.90;;;;;;5058329;28;20115;-87
2023/10/25 21:12:36;;;;;;;1374.33;533.53;;;10.00;99.90;;;;;;5073505;28;20041;-85
2023/10/25 21:15:10;;;;;;;1370.40;536.33;;;10.20;99.90;;;;;;5071307;28;20068;-85
2023/10/25 21:17:45;;;;;;;1316.07;510.60;;;10.30;99.90;;;;;;5057763;28;20123;-87
2023/10/25 21:20:13;;;;;;;1317.53;511.13;;;10.20;99.90;;;;;;5087005;28;20515;-85
2023/10/25 21:22:40;;;;;;;1311.57;507.10;;;10.20;99.90;;;;;;5071576;28;20504;-85
2023/10/25 21:25:16;;;;;;;1369.57;535.00;;;10.20;99.90;;;;;;5078638;28;20052;-89
2023/10/25 21:28:27;;;;;;;1380.47;538.23;;;10.20;99.90;;;;;;5093332;28;20547;-86
2023/10/25 21:31:49;;;;;;;1380.23;538.03;;;10.20;99.90;;;;;;5085413;28;20052;-84
2023/10/25 21:35:02;;;;;;;1321.37;509.97;;;10.30;99.90;;;;;;5024969;28;20490;-85
2023/10/25 21:38:51;;;;;;;1316.90;509.93;;;10.30;99.90;;;;;;5005123;28;20536;-84
2023/10/25 21:42:13;;;;;;;1372.17;532.13;;;10.20;99.90;;;;;;4971934;28;20177;-85
2023/10/25 21:52:58;;;;;;;1299.97;499.03;;;10.20;99.90;;;;;;4934364;29;20183;-85
2023/10/25 21:56:40;;;;;;;;;;;;;;;;;;;;;
2023/10/25 22:00:09;;;;;;;1356.07;533.07;;;10.20;99.90;;;;;;4934214;29;20052;-85
2023/10/25 22:03:38;;;;;;;1356.37;531.97;;;10.20;99.90;;;;;;4950655;29;20110;-85
2023/10/25 22:07:06;;;;;;;;;;;;;;;;;;;;;
2023/10/25 22:10:37;;;;;;;1303.27;496.50;;;10.20;99.90;;;;;;4991614;28;20050;-85
2023/10/25 22:17:33;;;;;;;1354.93;524.87;;;10.20;99.90;;;;;;5026366;28;20040;-85
2023/10/25 22:21:05;;;;;;;1297.87;501.43;;;10.20;99.90;;;;;;5050899;28;20045;-85
2023/10/25 22:23:53;;;;;;;1356.03;528.77;;;10.50;99.90;;;;;;5049788;28;20126;-84
2023/10/25 22:27:08;;;;;;;1350.10;529.50;;;10.10;99.90;;;;;;5015877;28;20517;-85
2023/10/25 22:30:25;;;;;;;;;;;;;;;;;;;;;
2023/10/25 22:33:51;;;;;;;;;;;;;;;;;;;;;